Adamsville, Utah
Current Conditions -  °F | °C
As of 2:52 PM on Thursday 18 Dec 2014 (Local Time) from KMLF Reporting Station
Scattered Clouds Scattered Clouds  
Wind Chill: 43°   Ceiling: Unl
Heat Index: 45°   Visibility: 10mi
Dew Point: 26°   Wind: 5mph
Humidity: 48%   Direction: 180°S
Pressure: 30.1"   Gusts: NA
Location:  38.2672°N, 112.728°W
Report Text: KMLF 182152Z AUTO 18004KT 10SM FEW044 SCT065 07/M03 A3010 RMK AO2 SLP187 T00721033 TSNO
Loading
Personal Weather Stations






























Interactive Weather Map New forecast layout! Learn more

10-Day Weather Forecast

Advertisements
Track Severe Weather on mobile